createdAt,value
2019-05-18T00:00:19.507Z,83.00
2019-05-18T00:02:48.077Z,83.30
2019-05-18T00:05:16.645Z,83.10
2019-05-18T00:07:45.127Z,82.90
2019-05-18T00:10:14.531Z,82.90
2019-05-18T00:12:43.033Z,83.00
2019-05-18T00:15:12.256Z,83.10
2019-05-18T00:17:40.874Z,83.10
2019-05-18T00:20:09.906Z,83.20
2019-05-18T00:22:38.868Z,83.30
2019-05-18T00:25:08.185Z,83.40
2019-05-18T00:27:36.656Z,84.10
2019-05-18T00:30:07.691Z,83.40
2019-05-18T00:32:36.270Z,83.40
2019-05-18T00:35:07.038Z,83.50
2019-05-18T00:37:35.581Z,83.50
2019-05-18T00:40:07.244Z,83.50
2019-05-18T00:42:35.755Z,83.60
2019-05-18T00:45:07.612Z,83.40
2019-05-18T00:47:41.423Z,83.50
2019-05-18T00:50:07.925Z,83.40
2019-05-18T00:52:36.962Z,83.60
2019-05-18T00:55:07.814Z,83.60
2019-05-18T00:57:36.307Z,83.80
2019-05-18T01:00:07.319Z,84.00
2019-05-18T01:02:36.066Z,84.10
2019-05-18T01:05:06.828Z,84.20
2019-05-18T01:07:35.385Z,84.50
2019-05-18T01:10:06.091Z,84.40
2019-05-18T01:12:34.634Z,84.40
2019-05-18T01:15:03.675Z,85.30
2019-05-18T01:17:32.332Z,84.40
2019-05-18T01:20:00.934Z,84.40
2019-05-18T01:22:29.432Z,84.60
2019-05-18T01:24:57.976Z,84.60
2019-05-18T01:27:26.474Z,84.70
2019-05-18T01:29:55.198Z,84.70
2019-05-18T01:32:23.678Z,84.80
2019-05-18T01:34:52.427Z,84.90
2019-05-18T01:37:20.912Z,85.10
2019-05-18T01:39:49.495Z,85.10
2019-05-18T01:42:18.151Z,85.10
2019-05-18T01:44:47.037Z,85.10
2019-05-18T01:47:15.865Z,85.30
2019-05-18T01:49:44.418Z,85.40
2019-05-18T01:52:12.950Z,85.50
2019-05-18T01:54:42.349Z,85.70
2019-05-18T01:57:10.821Z,86.50
2019-05-18T01:59:39.464Z,85.70
2019-05-18T02:02:07.959Z,85.90
2019-05-18T02:04:36.460Z,86.20
2019-05-18T02:07:05.064Z,86.10
2019-05-18T02:09:33.631Z,86.30
2019-05-18T02:12:02.102Z,86.30
2019-05-18T02:14:32.168Z,86.40
2019-05-18T02:17:00.649Z,86.50
2019-05-18T02:19:29.209Z,86.70
2019-05-18T02:21:57.701Z,86.80
2019-05-18T02:24:31.155Z,86.70
2019-05-18T02:27:00.700Z,86.50
2019-05-18T02:29:32.378Z,86.40
2019-05-18T02:32:02.822Z,86.60
2019-05-18T02:34:35.859Z,86.70
2019-05-18T02:37:08.695Z,86.40
2019-05-18T02:39:37.723Z,86.30
2019-05-18T02:42:10.046Z,86.30
2019-05-18T02:44:42.740Z,86.40
2019-05-18T02:47:12.803Z,86.30
2019-05-18T02:49:45.733Z,86.20
2019-05-18T02:52:19.052Z,86.10
2019-05-18T02:54:50.362Z,86.20
2019-05-18T02:57:18.871Z,86.20
2019-05-18T02:59:48.721Z,86.10
2019-05-18T03:02:21.567Z,86.40
2019-05-18T03:04:47.465Z,86.50
2019-05-18T03:07:16.092Z,86.60
2019-05-18T03:09:45.047Z,86.70
2019-05-18T03:12:13.512Z,86.90
2019-05-18T03:14:42.087Z,86.90
2019-05-18T03:17:10.625Z,87.00
2019-05-18T03:19:39.109Z,87.00
2019-05-18T03:22:07.664Z,87.00
2019-05-18T03:24:36.146Z,87.10
2019-05-18T03:27:04.626Z,87.10
2019-05-18T03:29:33.255Z,87.10
2019-05-18T03:32:01.820Z,87.10
2019-05-18T03:34:30.552Z,87.20
2019-05-18T03:36:59.043Z,87.30
2019-05-18T03:39:27.529Z,87.30
2019-05-18T03:41:56.090Z,87.30
2019-05-18T03:44:24.644Z,87.30
2019-05-18T03:46:53.195Z,87.50
2019-05-18T03:49:26.592Z,87.30
2019-05-18T03:51:51.952Z,87.50
2019-05-18T03:54:20.524Z,87.40
2019-05-18T03:56:49.079Z,87.40
2019-05-18T03:59:17.563Z,87.40
2019-05-18T04:01:50.562Z,87.40
2019-05-18T04:04:35.585Z,87.40
2019-05-18T04:07:08.011Z,87.50
2019-05-18T04:09:38.478Z,87.60
2019-05-18T04:12:11.254Z,87.50
2019-05-18T04:14:38.242Z,87.60
2019-05-18T04:17:11.187Z,87.50
2019-05-18T04:19:46.263Z,87.50
2019-05-18T04:22:07.557Z,87.80
2019-05-18T04:24:36.106Z,87.50
2019-05-18T04:27:04.764Z,87.50
2019-05-18T04:29:33.331Z,87.40
2019-05-18T04:32:01.802Z,87.30
2019-05-18T04:34:30.285Z,87.20
2019-05-18T04:36:59.027Z,87.80
2019-05-18T04:39:27.573Z,86.90
2019-05-18T04:41:56.088Z,87.10
2019-05-18T04:44:24.627Z,86.90
2019-05-18T04:46:53.117Z,86.70
2019-05-18T04:49:21.656Z,86.60
2019-05-18T04:51:50.140Z,86.30
2019-05-18T04:54:18.716Z,86.00
2019-05-18T04:56:47.271Z,85.50
2019-05-18T04:59:15.756Z,84.20
2019-05-18T05:01:44.394Z,82.90
2019-05-18T05:04:12.932Z,81.60
2019-05-18T05:06:41.405Z,80.30
2019-05-18T05:09:09.962Z,79.20
2019-05-18T05:11:38.430Z,77.80
2019-05-18T05:14:07.131Z,76.80
2019-05-18T05:16:35.624Z,75.60
2019-05-18T05:19:04.437Z,74.30
2019-05-18T05:21:32.922Z,73.10
2019-05-18T05:24:01.655Z,71.80
2019-05-18T05:26:30.159Z,70.70
2019-05-18T05:28:58.626Z,69.80
2019-05-18T05:31:27.191Z,68.90
2019-05-18T05:33:55.683Z,67.90
2019-05-18T05:36:24.283Z,67.10
2019-05-18T05:39:05.179Z,66.70
2019-05-18T05:41:33.713Z,65.90
2019-05-18T05:44:03.255Z,64.80
2019-05-18T05:46:31.811Z,63.80
2019-05-18T05:49:00.275Z,62.70
2019-05-18T05:51:28.757Z,62.60
2019-05-18T05:53:57.317Z,62.20
2019-05-18T05:56:25.785Z,61.10
2019-05-18T05:58:54.326Z,60.00
2019-05-18T06:01:22.825Z,59.70
2019-05-18T06:03:51.325Z,59.00
2019-05-18T06:06:22.995Z,58.40
2019-05-18T06:08:50.065Z,58.00
2019-05-18T06:11:18.621Z,57.80
2019-05-18T06:13:47.183Z,57.60
2019-05-18T06:16:15.874Z,57.20
2019-05-18T06:18:44.392Z,56.70
2019-05-18T06:21:12.949Z,57.00
2019-05-18T06:23:41.432Z,56.10
2019-05-18T06:26:09.976Z,56.20
2019-05-18T06:28:38.526Z,55.60
2019-05-18T06:31:06.990Z,54.50
2019-05-18T06:33:36.887Z,53.70
2019-05-18T06:36:05.455Z,53.30
2019-05-18T06:38:33.939Z,51.90
2019-05-18T06:41:02.411Z,52.20
2019-05-18T06:43:30.901Z,52.40
2019-05-18T06:46:01.713Z,51.60
2019-05-18T06:48:33.355Z,50.90
2019-05-18T06:51:07.305Z,49.70
2019-05-18T06:53:33.719Z,49.00
2019-05-18T06:56:03.145Z,48.60
2019-05-18T06:58:31.954Z,48.70
2019-05-18T07:01:00.458Z,48.60
2019-05-18T07:03:29.017Z,48.50
2019-05-18T07:05:57.907Z,48.20
2019-05-18T07:08:26.398Z,47.70
2019-05-18T07:10:54.888Z,47.40
2019-05-18T07:13:23.393Z,46.50
2019-05-18T07:15:54.799Z,45.80
2019-05-18T07:18:26.570Z,46.00
2019-05-18T07:23:43.980Z,45.60
2019-05-18T07:26:12.874Z,44.40
2019-05-18T07:28:41.391Z,45.00
2019-05-18T07:31:10.342Z,44.80
2019-05-18T07:33:38.833Z,45.40
2019-05-18T07:36:07.369Z,45.80
2019-05-18T07:38:35.867Z,45.30
2019-05-18T07:41:04.988Z,45.40
2019-05-18T07:43:33.455Z,45.10
2019-05-18T07:46:02.037Z,44.20
2019-05-18T07:48:30.555Z,43.70
2019-05-18T07:50:59.038Z,42.50
2019-05-18T07:53:27.527Z,41.90
2019-05-18T07:55:56.107Z,40.90
2019-05-18T07:58:26.734Z,40.70
2019-05-18T08:00:58.404Z,42.00
2019-05-18T08:03:32.875Z,42.30
2019-05-18T08:06:03.291Z,41.70
2019-05-18T08:08:30.929Z,39.10
2019-05-18T08:11:00.944Z,39.40
2019-05-18T08:13:29.439Z,39.70
2019-05-18T08:15:57.931Z,40.50
2019-05-18T08:18:26.491Z,40.80
2019-05-18T08:20:54.974Z,42.70
2019-05-18T08:23:23.470Z,45.10
2019-05-18T08:25:52.420Z,47.10
2019-05-18T08:28:20.895Z,46.90
2019-05-18T08:30:49.407Z,45.30
2019-05-18T08:33:17.881Z,43.80
2019-05-18T08:35:46.351Z,42.80
2019-05-18T08:38:14.923Z,42.80
2019-05-18T08:40:43.687Z,43.00
2019-05-18T08:43:12.224Z,44.00
2019-05-18T08:45:47.921Z,45.20
2019-05-18T08:48:19.741Z,46.70
2019-05-18T08:50:51.160Z,48.00
2019-05-18T08:53:19.941Z,49.10
2019-05-18T08:55:48.422Z,48.80
2019-05-18T08:58:16.909Z,48.40
2019-05-18T09:00:45.417Z,47.80
2019-05-18T09:03:13.900Z,47.60
2019-05-18T09:05:42.922Z,47.50
2019-05-18T09:08:11.495Z,47.30
2019-05-18T09:10:40.060Z,48.50
2019-05-18T09:13:08.559Z,49.50
2019-05-18T09:15:37.033Z,50.90
2019-05-18T09:18:05.584Z,50.90
2019-05-18T09:20:34.311Z,51.10
2019-05-18T09:23:03.366Z,52.00
2019-05-18T09:25:31.878Z,50.80
2019-05-18T09:28:00.469Z,50.60
2019-05-18T09:30:29.022Z,50.70
2019-05-18T09:32:57.583Z,50.30
2019-05-18T09:35:26.086Z,50.30
2019-05-18T09:37:54.758Z,50.20
2019-05-18T09:40:23.396Z,50.00
2019-05-18T09:42:52.123Z,50.20
2019-05-18T09:45:21.726Z,50.20
2019-05-18T09:47:50.385Z,49.70
2019-05-18T09:50:19.503Z,49.50
2019-05-18T09:52:47.984Z,49.30
2019-05-18T09:55:17.566Z,49.10
2019-05-18T09:57:47.013Z,49.10
2019-05-18T10:00:17.296Z,48.80
2019-05-18T10:02:45.810Z,48.80
2019-05-18T10:05:15.107Z,49.50
2019-05-18T10:07:43.906Z,50.00
2019-05-18T10:10:13.238Z,50.10
2019-05-18T10:12:41.809Z,50.10
2019-05-18T10:15:10.927Z,50.40
2019-05-18T10:17:39.406Z,50.60
2019-05-18T10:20:09.294Z,50.30
2019-05-18T10:22:51.164Z,50.30
2019-05-18T10:25:09.337Z,49.70
2019-05-18T10:27:37.948Z,49.40
2019-05-18T10:30:07.550Z,49.50
2019-05-18T10:32:36.118Z,50.60
2019-05-18T10:35:08.877Z,50.00
2019-05-18T10:37:37.366Z,49.90
2019-05-18T10:40:08.253Z,49.80
2019-05-18T10:42:36.836Z,49.50
2019-05-18T10:45:09.001Z,47.70
2019-05-18T10:47:37.658Z,48.70
2019-05-18T10:50:18.852Z,48.60
2019-05-18T10:52:44.723Z,48.20
2019-05-18T10:55:13.410Z,47.80
2019-05-18T10:57:41.887Z,47.60
2019-05-18T11:00:12.492Z,47.80
2019-05-18T11:02:41.044Z,47.00
2019-05-18T11:05:10.736Z,46.90
2019-05-18T11:07:39.515Z,46.10
2019-05-18T11:10:09.658Z,45.10
2019-05-18T11:12:38.639Z,45.20
2019-05-18T11:15:09.944Z,45.70
2019-05-18T11:17:38.559Z,45.90
2019-05-18T11:20:08.384Z,45.60
2019-05-18T11:22:36.945Z,45.50
2019-05-18T11:25:07.584Z,45.80
2019-05-18T11:27:36.438Z,45.70
2019-05-18T11:30:09.911Z,45.70
2019-05-18T11:32:41.570Z,45.90
2019-05-18T11:35:10.996Z,45.50
2019-05-18T11:37:39.576Z,46.20
2019-05-18T11:40:11.425Z,45.20
2019-05-18T11:42:40.122Z,44.90
2019-05-18T11:45:10.664Z,44.10
2019-05-18T11:47:39.219Z,43.30
2019-05-18T11:50:10.170Z,42.80
2019-05-18T11:52:39.090Z,43.40
2019-05-18T11:55:08.524Z,43.40
2019-05-18T11:57:37.345Z,43.40
2019-05-18T12:00:09.560Z,43.30
2019-05-18T12:02:38.132Z,43.50
2019-05-18T12:05:27.471Z,43.50
2019-05-18T12:07:55.968Z,44.00
2019-05-18T12:10:24.749Z,43.40
2019-05-18T12:12:53.288Z,42.80
2019-05-18T12:15:22.533Z,42.60
2019-05-18T12:17:51.183Z,42.40
2019-05-18T12:20:21.085Z,42.10
2019-05-18T12:22:49.655Z,42.20
2019-05-18T12:25:18.236Z,42.30
2019-05-18T12:27:47.606Z,41.90
2019-05-18T12:30:17.733Z,41.40
2019-05-18T12:32:46.778Z,41.00
2019-05-18T12:35:16.299Z,40.80
2019-05-18T12:37:44.791Z,40.60
2019-05-18T12:40:16.413Z,40.10
2019-05-18T12:42:44.922Z,39.40
2019-05-18T12:45:14.404Z,39.20
2019-05-18T12:47:42.890Z,39.20
2019-05-18T12:50:11.790Z,38.80
2019-05-18T12:52:40.318Z,38.70
2019-05-18T12:55:09.803Z,38.50
2019-05-18T12:57:38.459Z,37.70
2019-05-18T13:00:10.178Z,39.60
2019-05-18T13:02:38.657Z,39.80
2019-05-18T13:05:08.288Z,40.70
2019-05-18T13:07:36.999Z,41.00
2019-05-18T13:10:07.980Z,41.40
2019-05-18T13:12:42.197Z,41.30
2019-05-18T13:15:12.190Z,41.50
2019-05-18T13:17:40.671Z,41.70
2019-05-18T13:20:11.126Z,41.90
2019-05-18T13:22:40.368Z,41.90
2019-05-18T13:25:10.282Z,42.10
2019-05-18T13:27:40.110Z,41.90
2019-05-18T13:30:11.819Z,42.10
2019-05-18T13:32:41.074Z,42.20
2019-05-18T13:35:10.267Z,42.40
2019-05-18T13:37:38.764Z,42.20
2019-05-18T13:40:08.622Z,42.50
2019-05-18T13:42:37.112Z,42.00
2019-05-18T13:45:08.110Z,42.00
2019-05-18T13:47:36.960Z,41.90
2019-05-18T13:50:06.675Z,42.00
2019-05-18T13:52:35.425Z,41.00
2019-05-18T13:55:07.169Z,41.70
2019-05-18T13:57:36.229Z,41.00
2019-05-18T14:00:09.513Z,41.10
2019-05-18T14:02:38.171Z,40.90
2019-05-18T14:05:07.097Z,40.70
2019-05-18T14:07:35.690Z,40.70
2019-05-18T14:10:07.597Z,40.30
2019-05-18T14:12:36.150Z,40.30
2019-05-18T14:15:05.912Z,40.20
2019-05-18T14:17:34.443Z,40.20
2019-05-18T14:20:03.215Z,40.20
2019-05-18T14:22:31.845Z,40.10
2019-05-18T14:25:00.401Z,39.00
2019-05-18T14:27:30.482Z,38.80
2019-05-18T14:30:00.535Z,38.10
2019-05-18T14:32:29.025Z,38.40
2019-05-18T14:34:57.499Z,38.70
2019-05-18T14:37:25.981Z,39.40
2019-05-18T14:39:54.497Z,39.00
2019-05-18T14:42:23.236Z,38.60
2019-05-18T14:44:52.078Z,38.60
2019-05-18T14:47:20.658Z,38.40
2019-05-18T14:49:49.212Z,38.80
2019-05-18T14:52:17.706Z,38.70
2019-05-18T14:54:48.749Z,38.90
2019-05-18T14:57:18.859Z,38.40
2019-05-18T14:59:52.110Z,38.40
2019-05-18T15:02:23.434Z,38.70
2019-05-18T15:04:57.027Z,38.90
2019-05-18T15:07:43.734Z,39.40
2019-05-18T15:10:15.591Z,38.80
2019-05-18T15:12:44.140Z,39.30
2019-05-18T15:15:14.284Z,39.70
2019-05-18T15:17:43.030Z,39.80
2019-05-18T15:20:15.768Z,40.10
2019-05-18T15:23:03.294Z,40.00
2019-05-18T15:25:49.323Z,40.00
2019-05-18T15:28:09.471Z,40.20
2019-05-18T15:30:35.479Z,40.80
2019-05-18T15:33:04.528Z,40.20
2019-05-18T15:35:33.099Z,40.30
2019-05-18T15:38:01.585Z,40.40
2019-05-18T15:40:30.087Z,40.70
2019-05-18T15:42:58.646Z,40.90
2019-05-18T15:45:27.192Z,40.70
2019-05-18T15:47:59.101Z,41.00
2019-05-18T15:50:27.575Z,40.50
2019-05-18T15:52:56.040Z,40.80
2019-05-18T15:55:32.384Z,41.00
2019-05-18T15:58:09.186Z,40.70
2019-05-18T16:00:38.709Z,40.90
2019-05-18T16:03:07.250Z,41.00
2019-05-18T16:05:36.572Z,41.10
2019-05-18T16:08:05.144Z,41.20
2019-05-18T16:10:37.480Z,41.40
2019-05-18T16:13:06.021Z,41.40
2019-05-18T16:15:34.511Z,41.60
2019-05-18T16:18:03.024Z,42.10
2019-05-18T16:20:31.891Z,42.00
2019-05-18T16:23:04.610Z,42.10
2019-05-18T16:25:39.766Z,42.20
2019-05-18T16:28:08.237Z,42.10
2019-05-18T16:30:36.763Z,42.10
2019-05-18T16:33:07.451Z,42.30
2019-05-18T16:35:37.914Z,42.40
2019-05-18T16:38:23.919Z,42.70
2019-05-18T16:41:10.192Z,42.80
2019-05-18T16:43:42.707Z,42.80
2019-05-18T16:46:15.143Z,42.80
2019-05-18T16:48:46.971Z,42.80
2019-05-18T16:51:20.008Z,42.90
2019-05-18T16:53:48.145Z,43.10
2019-05-18T16:56:16.639Z,43.30
2019-05-18T16:58:45.152Z,43.30
2019-05-18T17:01:13.700Z,43.40
2019-05-18T17:03:42.243Z,43.60
2019-05-18T17:06:11.073Z,43.60
2019-05-18T17:08:39.551Z,43.70
2019-05-18T17:11:08.034Z,43.70
2019-05-18T17:13:36.523Z,43.60
2019-05-18T17:16:05.074Z,43.60
2019-05-18T17:18:33.561Z,43.60
2019-05-18T17:21:02.037Z,43.60
2019-05-18T17:23:30.511Z,43.60
2019-05-18T17:25:59.327Z,43.50
2019-05-18T17:28:27.990Z,43.50
2019-05-18T17:30:56.476Z,43.50
2019-05-18T17:33:24.971Z,43.70
2019-05-18T17:36:00.174Z,43.90
2019-05-18T17:38:23.960Z,43.90
2019-05-18T17:40:52.512Z,43.70
2019-05-18T17:43:21.382Z,43.80
2019-05-18T17:45:49.929Z,43.70
2019-05-18T17:48:21.641Z,43.90
2019-05-18T17:50:50.119Z,44.30
2019-05-18T17:53:18.843Z,44.30
2019-05-18T17:55:47.326Z,44.60
2019-05-18T17:58:21.806Z,44.60
2019-05-18T18:00:50.364Z,44.70
2019-05-18T18:03:20.473Z,44.70
2019-05-18T18:05:50.620Z,45.00
2019-05-18T18:08:21.143Z,45.10
2019-05-18T18:10:54.647Z,45.00
2019-05-18T18:13:24.114Z,45.80
2019-05-18T18:15:52.594Z,46.60
2019-05-18T18:18:21.092Z,47.30
2019-05-18T18:20:53.328Z,47.70
2019-05-18T18:23:21.917Z,48.20
2019-05-18T18:25:50.471Z,48.30
2019-05-18T18:28:18.946Z,48.60
2019-05-18T18:30:47.457Z,48.70
2019-05-18T18:33:16.087Z,48.80
2019-05-18T18:35:44.565Z,49.20
2019-05-18T18:38:13.092Z,49.60
2019-05-18T18:40:42.323Z,49.90
2019-05-18T18:43:11.011Z,50.00
2019-05-18T18:45:40.495Z,50.20
2019-05-18T18:48:09.304Z,50.10
2019-05-18T18:50:37.858Z,50.20
2019-05-18T18:53:06.354Z,50.60
2019-05-18T18:55:34.842Z,50.70
2019-05-18T18:58:03.398Z,50.90
2019-05-18T19:00:32.437Z,51.10
2019-05-18T19:03:07.671Z,51.20
2019-05-18T19:05:38.314Z,51.50
2019-05-18T19:08:09.175Z,51.60
2019-05-18T19:10:37.659Z,51.90
2019-05-18T19:13:06.142Z,52.00
2019-05-18T19:15:34.641Z,52.10
2019-05-18T19:18:03.183Z,52.20
2019-05-18T19:20:31.700Z,52.30
2019-05-18T19:23:00.450Z,52.40
2019-05-18T19:25:29.003Z,53.00
2019-05-18T19:27:57.482Z,53.20
2019-05-18T19:30:25.962Z,53.40
2019-05-18T19:32:54.466Z,53.70
2019-05-18T19:35:22.956Z,54.40
2019-05-18T19:37:51.663Z,55.10
2019-05-18T19:40:20.619Z,55.70
2019-05-18T19:42:56.686Z,55.90
2019-05-18T19:45:31.434Z,56.90
2019-05-18T19:48:00.911Z,57.50
2019-05-18T19:50:31.387Z,57.70
2019-05-18T19:53:00.269Z,58.20
2019-05-18T19:55:31.938Z,58.60
2019-05-18T19:58:08.840Z,58.70
2019-05-18T20:00:36.667Z,58.90
2019-05-18T20:03:25.460Z,58.90
2019-05-18T20:05:57.348Z,59.20
2019-05-18T20:08:28.655Z,59.60
2019-05-18T20:11:02.468Z,59.90
2019-05-18T20:13:27.489Z,60.10
2019-05-18T20:15:56.022Z,60.10
2019-05-18T20:18:24.514Z,60.20
2019-05-18T20:20:53.141Z,61.50
2019-05-18T20:23:21.626Z,60.50
2019-05-18T20:25:50.256Z,60.70
2019-05-18T20:28:23.620Z,60.90
2019-05-18T20:30:48.961Z,61.20
2019-05-18T20:33:17.547Z,61.50
2019-05-18T20:35:46.098Z,61.80
2019-05-18T20:38:14.655Z,62.00
2019-05-18T20:40:43.520Z,63.10
2019-05-18T20:43:11.991Z,62.70
2019-05-18T20:45:40.542Z,62.60
2019-05-18T20:48:09.051Z,62.60
2019-05-18T20:50:37.599Z,62.80
2019-05-18T20:53:06.283Z,63.20
2019-05-18T20:55:34.870Z,63.20
2019-05-18T20:58:03.425Z,63.60
2019-05-18T21:00:32.154Z,63.70
2019-05-18T21:03:00.722Z,63.70
2019-05-18T21:05:29.277Z,63.80
2019-05-18T21:07:57.822Z,63.90
2019-05-18T21:10:26.381Z,63.90
2019-05-18T21:12:54.885Z,64.00
2019-05-18T21:15:23.374Z,64.20
2019-05-18T21:17:51.887Z,64.40
2019-05-18T21:20:20.463Z,64.40
2019-05-18T21:22:49.033Z,64.50
2019-05-18T21:25:17.680Z,64.90
2019-05-18T21:27:46.165Z,64.90
2019-05-18T21:30:15.403Z,65.00
2019-05-18T21:32:43.897Z,65.00
2019-05-18T21:35:12.706Z,65.20
2019-05-18T21:37:41.218Z,65.20
2019-05-18T21:40:11.441Z,65.80
2019-05-18T21:42:40.329Z,65.90
2019-05-18T21:45:09.351Z,66.20
2019-05-18T21:47:37.820Z,66.10
2019-05-18T21:50:10.245Z,66.30
2019-05-18T21:52:41.634Z,66.40
2019-05-18T21:55:09.499Z,66.60
2019-05-18T21:57:38.062Z,66.80
2019-05-18T22:00:07.324Z,67.10
2019-05-18T22:02:35.877Z,67.10
2019-05-18T22:05:05.350Z,67.20
2019-05-18T22:07:33.890Z,67.40
2019-05-18T22:10:03.017Z,67.40
2019-05-18T22:12:31.584Z,67.80
2019-05-18T22:15:00.144Z,67.80
2019-05-18T22:17:28.717Z,68.10
2019-05-18T22:19:57.223Z,68.20
2019-05-18T22:22:25.789Z,68.40
2019-05-18T22:24:54.302Z,68.40
2019-05-18T22:27:22.828Z,68.50
2019-05-18T22:29:51.326Z,68.50
2019-05-18T22:32:20.094Z,68.70
2019-05-18T22:34:48.896Z,68.60
2019-05-18T22:37:17.402Z,68.80
2019-05-18T22:39:45.871Z,69.00
2019-05-18T22:42:14.343Z,69.10
2019-05-18T22:44:42.862Z,69.30
2019-05-18T22:47:11.508Z,69.60
2019-05-18T22:49:40.073Z,69.50
2019-05-18T22:52:08.557Z,69.40
2019-05-18T22:54:37.057Z,69.40
2019-05-18T22:57:05.531Z,69.50
2019-05-18T22:59:34.084Z,69.50
2019-05-18T23:02:02.655Z,69.60
2019-05-18T23:04:31.451Z,69.80
2019-05-18T23:06:59.957Z,69.70
2019-05-18T23:09:28.475Z,69.80
2019-05-18T23:11:57.091Z,70.00
2019-05-18T23:14:25.621Z,70.10
2019-05-18T23:16:54.129Z,70.10
2019-05-18T23:19:22.676Z,70.30
2019-05-18T23:21:52.696Z,70.40
2019-05-18T23:24:21.414Z,70.60
2019-05-18T23:26:52.887Z,70.70
2019-05-18T23:29:21.372Z,70.90
2019-05-18T23:31:51.242Z,70.80
2019-05-18T23:34:19.752Z,70.90
2019-05-18T23:36:48.285Z,71.00
2019-05-18T23:39:16.878Z,71.10
2019-05-18T23:41:45.464Z,71.30
2019-05-18T23:44:14.031Z,71.30
2019-05-18T23:46:42.508Z,71.50
2019-05-18T23:49:11.391Z,71.60
2019-05-18T23:51:40.349Z,71.80
2019-05-18T23:54:08.901Z,72.00
2019-05-18T23:56:37.782Z,72.30
2019-05-18T23:59:06.615Z,72.50
